• Join FlightAware (Why Join?)
  • Login
  • US Flag 
 
02:19AM EST


 

Airport Tracker/Info


-or-


 

Live Flight TrackerFlight Track Log ✈ GJS3644 ✈ 10-Jul-2014 ✈ KDEN - KCID

Flight Track Log - Related Links

Times and Time Zones

All times are in EDT time to prevent confusion due to time zone crossing. See the GJS3644 flight status page for this flight to view local times or setup timezone preferences in your user account.

Time Position Orientation Groundspeed Altitude Reporting Facility
EDT Latitude Longitude Course Direction KTS MPH feet Rate Location/Type
10:20PM 39.8167 -104.6167 76° East 202 232 6,900  Level Denver TRACON
10:21PM 39.8286 -104.5531 76° East 225 259 8,400 1,680 Climbing Denver Center
10:22PM 39.8481 -104.4586 75° East 269 310 9,900 1,380 Climbing Denver Center
10:23PM 39.8750 -104.3519 72° East 308 354 11,300 1,320 Climbing Denver Center
10:24PM 39.9078 -104.2206 72° East 355 409 12,700 1,500 Climbing Denver Center
10:25PM 39.9414 -104.0900 71° East 379 436 14,400 1,740 Climbing Denver Center
10:26PM 39.9783 -103.9450 72° East 391 450 16,300 1,680 Climbing Denver Center
10:27PM 40.0117 -103.8069 72° East 400 460 17,900 1,500 Climbing Denver Center
10:28PM 40.0383 -103.6639 76° East 390 449 19,500 1,500 Climbing Denver Center
10:29PM 40.0636 -103.5164 77° East 411 473 21,000 1,440 Climbing Denver Center
10:30PM 40.0869 -103.3675 78° East 418 481 22,500 1,320 Climbing Denver Center
10:31PM 40.1106 -103.2150 79° East 426 490 23,800 1,200 Climbing Denver Center
10:32PM 40.1406 -103.0272 78° East 441 507 25,000 1,020 Climbing Denver Center
10:33PM 40.1664 -102.8661 78° East 450 518 26,000 960 Climbing Denver Center
10:34PM 40.1914 -102.7036 79° East 453 521 27,000 960 Climbing Denver Center
10:35PM 40.2203 -102.5256 78° East 457 526 28,100 960 Climbing Denver Center
10:36PM 40.2447 -102.3656 79° East 463 533 29,100 960 Climbing Denver Center
10:37PM 40.2719 -102.1775 79° East 470 541 30,200 960 Climbing Denver Center
10:38PM 40.2964 -102.0178 79° East 470 541 31,200 960 Climbing Denver Center
10:39PM 40.3236 -101.8311 79° East 469 540 32,300 840 Climbing Denver Center
10:40PM 40.3475 -101.6711 79° East 468 539 33,000 720 Climbing Denver Center
10:41PM 40.3772 -101.5133 76° East 468 539 33,800 900 Climbing Denver Center
10:42PM 40.4136 -101.3292 75° East 468 539 34,900 960 Climbing Denver Center
10:43PM 40.4444 -101.1731 75° East 466 536 35,900 960 Climbing Denver Center
10:44PM 40.4800 -100.9933 75° East 462 532 37,000 480 Climbing Denver Center
10:45PM 40.5094 -100.8400 76° East 459 528 37,000  Level Denver Center
10:46PM 40.5447 -100.6581 76° East 461 531 37,000  Level Denver Center
10:47PM 40.5750 -100.5014 76° East 463 533 37,000  Level Denver Center
10:48PM 40.6100 -100.3197 76° East 463 533 37,000  Level Denver Center
10:50PM 40.6397 -100.1647 76° East 463 533 37,000  Level Denver Center
10:51PM 40.6742 -99.9808 76° East 463 533 37,000  Level Denver Center
10:52PM 40.7061 -99.8100 76° East 464 534 37,000  Level Denver Center
10:53PM 40.7367 -99.6442 76° East 465 535 37,000  Level Denver Center
10:54PM 40.7667 -99.4806 76° East 463 533 37,000  Level Minneapolis Center
10:55PM 40.7969 -99.3150 76° East 464 534 37,000  Level Minneapolis Center
10:56PM 40.8256 -99.1511 77° East 464 534 37,000  Level Minneapolis Center
10:57PM 40.8558 -98.9753 77° East 461 531 37,000  Level Minneapolis Center
10:58PM 40.8839 -98.8117 77° East 460 529 37,000  Level Minneapolis Center
10:59PM 40.9125 -98.6444 77° East 462 532 37,000  Level Minneapolis Center
11:00PM 40.9433 -98.4767 76° East 467 537 37,000  Level Minneapolis Center
11:01PM 40.9747 -98.2956 77° East 469 540 37,000  Level Minneapolis Center
11:02PM 41.0036 -98.1278 77° East 470 541 37,000  Level Minneapolis Center
11:03PM 41.0317 -97.9592 78° East 470 541 37,000  Level Minneapolis Center
11:04PM 41.0597 -97.7897 78° East 470 541 37,000  Level Minneapolis Center
11:05PM 41.0933 -97.5878 77° East 470 541 37,000  Level Minneapolis Center
11:06PM 41.1217 -97.4197 77° East 470 541 37,000  Level Minneapolis Center
11:07PM 41.1461 -97.2606 78° East 470 541 37,000  Level Minneapolis Center
11:08PM 41.1731 -97.0925 78° East 469 540 37,000  Level Minneapolis Center
11:09PM 41.2008 -96.9250 78° East 468 539 37,000  Level Minneapolis Center
11:10PM 41.2261 -96.7567 79° East 467 537 37,000  Level Minneapolis Center
11:11PM 41.2531 -96.5883 78° East 466 536 37,000  Level Minneapolis Center
11:12PM 41.2839 -96.3881 78° East 465 535 37,000  Level Minneapolis Center
11:13PM 41.3058 -96.2406 79° East 465 535 37,000  Level Minneapolis Center
11:14PM 41.3369 -96.0394 78° East 465 535 37,000  Level Minneapolis Center
11:15PM 41.3611 -95.8714 79° East 465 535 37,000 -540 Level Minneapolis Center
11:16PM 41.3858 -95.7019 79° East 465 535 36,000 -1,020 Descending Minneapolis Center
11:17PM 41.4114 -95.5244 79° East 467 537 35,000 -1,020 Descending Minneapolis Center
11:18PM 41.4369 -95.3528 79° East 470 541 34,000 -1,080 Descending Minneapolis Center
11:19PM 41.4611 -95.1792 79° East 472 543 32,900 -1,080 Descending Minneapolis Center
11:20PM 41.4858 -95.0028 79° East 480 552 31,900 -960 Descending Minneapolis Center
11:21PM 41.5125 -94.8231 79° East 490 564 31,000 -480 Descending Minneapolis Center
11:22PM 41.5367 -94.6414 80° East 496 571 31,000  Level Minneapolis Center
11:23PM 41.5608 -94.4575 80° East 500 575 31,000  Level Minneapolis Center
11:24PM 41.5844 -94.2736 80° East 501 577 31,000 -60 Level Minneapolis Center
11:25PM 41.6150 -94.0553 79° East 501 577 30,900 -840 Descending Minneapolis Center
11:26PM 41.6392 -93.8719 80° East 502 578 29,300 -1,740 Descending Minneapolis Center
11:27PM 41.6600 -93.7019 81° East 481 554 27,400 -1,800 Descending Minneapolis Center
11:28PM 41.6806 -93.5389 80° East 459 528 25,700 -1,620 Descending Minneapolis Center
11:29PM 41.7014 -93.3739 80° East 457 526 24,200 -1,020 Descending Minneapolis Center
11:30PM 41.7225 -93.2097 80° East 455 524 23,700 -1,500 Descending Minneapolis Center
11:32PM 41.7411 -93.0511 81° East 442 509 21,200 -2,820 Descending Minneapolis Center
11:33PM 41.7642 -92.8703 80° East 423 487 18,000 -2,940 Descending Minneapolis Center
11:34PM 41.7814 -92.7200 81° East 420 483 15,300 -2,520 Descending Minneapolis Center
11:34PM 41.7944 -92.6100 81° East 389 448 13,400 -2,220 Descending Chicago Center
11:35PM 41.8100 -92.4792 81° East 369 425 11,300 -1,200 Descending Chicago Center
11:36PM 41.8231 -92.3661 81° East 324 373 11,000 -240 Descending Chicago Center
11:37PM 41.8350 -92.2561 82° East 302 348 10,900 -780 Descending Chicago Center
11:38PM 41.8481 -92.1542 80° East 287 330 9,500 -1,740 Descending Chicago Center
11:39PM 41.8597 -92.0625 80° East 258 297 7,400 -2,160 Descending Chicago Center
11:40PM 41.8731 -91.9578 80° East 248 285 5,200 -1,680 Descending Chicago Center
11:43PM 41.8856 -91.8189 83° East 192 221 2,300 -1,260 Descending Chicago Center
11:44PM 41.8858 -91.7708 90° East 144 166 1,500 -660 Descending Chicago Center
11:45PM 41.8847 -91.7156 92° East 143 165 1,000 -300 Descending Chicago Center
11:46PM 41.8858 -91.6719 88° East 143 165 900 -120 Descending Chicago Center